createdAt,value
2022-12-25T00:01:23.916Z,9.19
2022-12-25T00:03:51.330Z,9.19
2022-12-25T00:06:19.237Z,9.17
2022-12-25T00:08:46.088Z,9.18
2022-12-25T00:11:16.019Z,9.22
2022-12-25T00:13:44.622Z,9.20
2022-12-25T00:16:16.253Z,9.21
2022-12-25T00:18:43.283Z,9.19
2022-12-25T00:21:10.973Z,9.20
2022-12-25T00:23:38.257Z,9.20
2022-12-25T00:26:06.928Z,9.22
2022-12-25T00:28:34.688Z,9.26
2022-12-25T00:31:10.241Z,9.26
2022-12-25T00:33:38.160Z,9.24
2022-12-25T00:36:06.476Z,9.22
2022-12-25T00:38:34.742Z,9.14
2022-12-25T00:41:10.629Z,9.03
2022-12-25T00:43:38.584Z,8.95
2022-12-25T00:46:06.809Z,8.93
2022-12-25T00:48:34.666Z,8.90
2022-12-25T00:51:04.580Z,8.91
2022-12-25T00:53:31.916Z,8.92
2022-12-25T00:56:03.076Z,8.92
2022-12-25T00:58:32.082Z,8.92
2022-12-25T01:00:59.362Z,8.94
2022-12-25T01:03:27.157Z,9.00
2022-12-25T01:06:05.604Z,8.99
2022-12-25T01:08:34.651Z,8.95
2022-12-25T01:11:07.482Z,8.93
2022-12-25T01:13:37.809Z,8.93
2022-12-25T01:16:09.727Z,8.93
2022-12-25T01:18:37.954Z,8.92
2022-12-25T01:21:12.548Z,8.90
2022-12-25T01:23:39.328Z,8.91
2022-12-25T01:26:07.479Z,8.93
2022-12-25T01:28:35.694Z,8.89
2022-12-25T01:31:03.479Z,8.92
2022-12-25T01:33:30.761Z,8.91
2022-12-25T01:35:58.658Z,8.86
2022-12-25T01:38:25.748Z,8.87
2022-12-25T01:40:52.660Z,8.91
2022-12-25T01:43:32.386Z,8.96
2022-12-25T01:45:59.668Z,8.96
2022-12-25T01:48:34.408Z,8.94
2022-12-25T01:51:06.022Z,8.95
2022-12-25T01:53:32.987Z,8.98
2022-12-25T01:56:05.705Z,8.96
2022-12-25T01:58:33.498Z,8.96
2022-12-25T02:01:01.509Z,8.97
2022-12-25T02:03:28.387Z,8.97
2022-12-25T02:05:55.272Z,8.90
2022-12-25T02:08:23.189Z,8.89
2022-12-25T02:10:53.504Z,8.89
2022-12-25T02:13:21.121Z,8.93
2022-12-25T02:16:10.402Z,8.92
2022-12-25T02:18:51.793Z,8.93
2022-12-25T02:21:49.787Z,8.92
2022-12-25T02:24:28.955Z,8.92
2022-12-25T02:27:07.124Z,8.91
2022-12-25T02:29:42.556Z,8.88
2022-12-25T02:32:20.703Z,8.91
2022-12-25T02:34:55.751Z,8.91
2022-12-25T02:37:50.062Z,8.94
2022-12-25T02:40:19.426Z,8.99
2022-12-25T02:43:14.350Z,9.00
2022-12-25T02:46:15.790Z,9.03
2022-12-25T02:49:09.394Z,9.06
2022-12-25T02:51:59.471Z,9.04
2022-12-25T02:54:56.625Z,8.96
2022-12-25T02:57:48.013Z,8.86
2022-12-25T03:00:34.013Z,8.84
2022-12-25T03:03:21.158Z,8.87
2022-12-25T03:06:07.592Z,8.78
2022-12-25T03:08:39.915Z,8.72
2022-12-25T03:11:28.524Z,8.72
2022-12-25T03:14:18.767Z,8.75
2022-12-25T03:16:50.549Z,8.76
2022-12-25T03:19:37.544Z,8.80
2022-12-25T03:22:25.495Z,8.77
2022-12-25T03:25:10.885Z,8.74
2022-12-25T03:27:39.716Z,8.75
2022-12-25T03:30:25.829Z,8.77
2022-12-25T03:33:43.963Z,8.75
2022-12-25T03:36:25.806Z,8.74
2022-12-25T03:39:19.428Z,8.71
2022-12-25T03:42:13.684Z,8.67
2022-12-25T03:44:53.639Z,8.55
2022-12-25T03:47:35.122Z,8.56
2022-12-25T03:51:00.447Z,8.65
2022-12-25T03:53:54.210Z,8.67
2022-12-25T03:56:40.679Z,8.65
2022-12-25T03:59:26.145Z,8.70
2022-12-25T04:02:11.821Z,8.69
2022-12-25T04:04:57.226Z,8.67
2022-12-25T04:07:42.847Z,8.65
2022-12-25T04:10:29.310Z,8.59
2022-12-25T04:13:17.822Z,8.56
2022-12-25T04:16:03.538Z,8.56
2022-12-25T04:18:48.905Z,8.61
2022-12-25T04:21:34.306Z,8.63
2022-12-25T04:24:19.792Z,8.61
2022-12-25T04:27:05.139Z,8.63
2022-12-25T04:29:50.514Z,8.67
2022-12-25T04:32:35.912Z,8.70
2022-12-25T04:35:21.438Z,8.73
2022-12-25T04:37:48.184Z,8.73
2022-12-25T04:40:15.069Z,8.71
2022-12-25T04:42:41.762Z,8.70
2022-12-25T04:45:09.582Z,8.71
2022-12-25T04:47:36.404Z,8.69
2022-12-25T04:50:03.682Z,8.63
2022-12-25T04:52:38.494Z,8.65
2022-12-25T04:55:07.672Z,8.67
2022-12-25T04:57:34.885Z,8.68
2022-12-25T05:00:01.911Z,8.69
2022-12-25T05:02:29.078Z,8.72
2022-12-25T05:04:55.984Z,8.74
2022-12-25T05:07:22.755Z,8.73
2022-12-25T05:09:49.686Z,8.75
2022-12-25T05:12:16.653Z,8.74
2022-12-25T05:14:43.409Z,8.72
2022-12-25T05:17:10.194Z,8.73
2022-12-25T05:19:36.890Z,8.70
2022-12-25T05:22:03.665Z,8.69
2022-12-25T05:24:30.488Z,8.71
2022-12-25T05:26:57.426Z,8.73
2022-12-25T05:29:24.175Z,8.76
2022-12-25T05:31:52.193Z,8.80
2022-12-25T05:34:19.260Z,8.76
2022-12-25T05:36:46.043Z,8.74
2022-12-25T05:39:12.727Z,8.76
2022-12-25T05:41:41.253Z,8.73
2022-12-25T05:44:08.020Z,8.74
2022-12-25T05:46:34.852Z,8.74
2022-12-25T05:49:02.856Z,8.78
2022-12-25T05:51:30.792Z,8.76
2022-12-25T05:53:57.613Z,8.78
2022-12-25T05:56:24.310Z,8.83
2022-12-25T05:58:51.119Z,8.86
2022-12-25T06:01:23.601Z,8.88
2022-12-25T06:03:52.713Z,8.83
2022-12-25T06:06:19.799Z,8.82
2022-12-25T06:08:46.916Z,8.82
2022-12-25T06:11:14.782Z,8.79
2022-12-25T06:13:41.945Z,8.80
2022-12-25T06:16:12.058Z,8.80
2022-12-25T06:18:44.648Z,8.81
2022-12-25T06:21:13.045Z,8.84
2022-12-25T06:23:41.092Z,8.87
2022-12-25T06:26:11.190Z,8.85
2022-12-25T06:28:38.134Z,8.89
2022-12-25T06:31:17.272Z,8.93
2022-12-25T06:33:44.418Z,8.93
2022-12-25T06:36:16.136Z,8.95
2022-12-25T06:38:43.289Z,8.93
2022-12-25T06:41:12.453Z,8.90
2022-12-25T06:43:39.298Z,8.89
2022-12-25T06:46:11.666Z,8.95
2022-12-25T06:48:40.169Z,8.98
2022-12-25T06:51:07.345Z,9.01
2022-12-25T06:53:40.599Z,9.01
2022-12-25T06:56:16.368Z,9.06
2022-12-25T06:58:48.976Z,9.09
2022-12-25T07:01:22.239Z,9.12
2022-12-25T07:03:52.245Z,9.12
2022-12-25T07:06:19.904Z,9.12
2022-12-25T07:08:46.798Z,9.13
2022-12-25T07:11:13.922Z,9.14
2022-12-25T07:13:40.892Z,9.14
2022-12-25T07:16:08.035Z,9.12
2022-12-25T07:18:35.099Z,9.06
2022-12-25T07:21:14.343Z,9.03
2022-12-25T07:23:41.672Z,9.02
2022-12-25T07:26:10.886Z,9.02
2022-12-25T07:28:38.125Z,9.01
2022-12-25T07:31:08.221Z,8.99
2022-12-25T07:33:35.021Z,9.01
2022-12-25T07:36:02.636Z,9.07
2022-12-25T07:38:29.540Z,9.18
2022-12-25T07:40:56.557Z,9.20
2022-12-25T07:43:23.929Z,9.24
2022-12-25T07:45:55.704Z,9.23
2022-12-25T07:48:22.704Z,9.26
2022-12-25T07:50:54.988Z,9.27
2022-12-25T07:53:21.883Z,9.28
2022-12-25T07:55:48.633Z,9.28
2022-12-25T07:58:19.923Z,9.30
2022-12-25T08:00:50.169Z,9.33
2022-12-25T08:03:17.121Z,9.36
2022-12-25T08:05:44.032Z,9.39
2022-12-25T08:08:10.753Z,9.42
2022-12-25T08:10:37.561Z,9.45
2022-12-25T08:13:09.009Z,9.45
2022-12-25T08:15:40.674Z,9.45
2022-12-25T08:18:07.502Z,9.39
2022-12-25T08:20:35.194Z,9.34
2022-12-25T08:23:02.383Z,9.32
2022-12-25T08:25:29.369Z,9.34
2022-12-25T08:27:56.378Z,9.33
2022-12-25T08:30:23.265Z,9.34
2022-12-25T08:32:50.102Z,9.37
2022-12-25T08:35:17.059Z,9.43
2022-12-25T08:37:44.320Z,9.49
2022-12-25T08:40:12.687Z,9.48
2022-12-25T08:42:40.564Z,9.41
2022-12-25T08:45:08.132Z,9.39
2022-12-25T08:47:35.007Z,9.40
2022-12-25T08:50:01.808Z,9.41
2022-12-25T08:52:29.216Z,9.41
2022-12-25T08:54:56.450Z,9.43
2022-12-25T08:57:23.302Z,9.49
2022-12-25T08:59:50.486Z,9.70
2022-12-25T09:02:18.436Z,9.94
2022-12-25T09:04:46.685Z,10.12
2022-12-25T09:07:13.441Z,10.25
2022-12-25T09:09:40.339Z,10.32
2022-12-25T09:12:07.290Z,10.36
2022-12-25T09:14:34.184Z,10.45
2022-12-25T09:17:00.877Z,10.54
2022-12-25T09:19:27.627Z,10.62
2022-12-25T09:21:54.366Z,10.66
2022-12-25T09:24:21.348Z,10.72
2022-12-25T09:26:48.229Z,10.73
2022-12-25T09:29:16.487Z,10.77
2022-12-25T09:31:43.714Z,10.89
2022-12-25T09:34:16.938Z,11.01
2022-12-25T09:36:45.476Z,11.09
2022-12-25T09:39:12.232Z,11.30
2022-12-25T09:41:57.726Z,11.40
2022-12-25T09:44:29.068Z,11.52
2022-12-25T09:47:01.573Z,11.56
2022-12-25T09:49:49.799Z,11.60
2022-12-25T09:52:24.007Z,11.55
2022-12-25T09:54:59.921Z,11.55
2022-12-25T09:57:26.806Z,11.55
2022-12-25T09:59:55.998Z,11.68
2022-12-25T10:02:44.358Z,11.85
2022-12-25T10:05:39.340Z,11.91
2022-12-25T10:08:33.556Z,11.96
2022-12-25T10:11:25.208Z,12.03
2022-12-25T10:14:25.895Z,12.05
2022-12-25T10:17:21.450Z,12.08
2022-12-25T10:20:00.734Z,12.07
2022-12-25T10:22:34.991Z,12.01
2022-12-25T10:25:03.675Z,12.01
2022-12-25T10:27:35.368Z,12.10
2022-12-25T10:30:16.242Z,12.11
2022-12-25T10:32:44.988Z,12.18
2022-12-25T10:35:15.254Z,12.22
2022-12-25T10:37:44.498Z,12.22
2022-12-25T10:40:36.856Z,12.17
2022-12-25T10:43:12.772Z,12.12
2022-12-25T10:45:44.334Z,12.11
2022-12-25T10:48:20.181Z,12.13
2022-12-25T10:50:47.613Z,12.21
2022-12-25T10:53:22.377Z,12.36
2022-12-25T10:56:01.986Z,12.47
2022-12-25T10:58:30.699Z,12.50
2022-12-25T11:01:05.022Z,12.57
2022-12-25T11:03:34.626Z,12.67
2022-12-25T11:06:02.793Z,12.71
2022-12-25T11:08:33.005Z,12.76
2022-12-25T11:11:06.319Z,12.76
2022-12-25T11:13:39.032Z,12.77
2022-12-25T11:16:13.699Z,12.79
2022-12-25T11:18:49.681Z,12.83
2022-12-25T11:21:18.159Z,12.87
2022-12-25T11:23:48.172Z,12.95
2022-12-25T11:26:17.210Z,12.97
2022-12-25T11:28:45.622Z,12.91
2022-12-25T11:31:22.716Z,12.91
2022-12-25T11:34:15.197Z,12.85
2022-12-25T11:36:46.463Z,12.82
2022-12-25T11:39:22.809Z,12.82
2022-12-25T11:42:00.959Z,12.80
2022-12-25T11:44:45.380Z,12.85
2022-12-25T11:47:33.581Z,12.96
2022-12-25T11:50:15.007Z,13.11
2022-12-25T11:52:46.980Z,13.20
2022-12-25T11:55:36.094Z,13.31
2022-12-25T11:58:14.142Z,13.37
2022-12-25T12:00:43.245Z,13.43
2022-12-25T12:03:27.802Z,13.52
2022-12-25T12:06:02.170Z,13.62
2022-12-25T12:08:30.143Z,13.69
2022-12-25T12:11:16.739Z,13.78
2022-12-25T12:14:14.697Z,13.77
2022-12-25T12:16:41.619Z,13.73
2022-12-25T12:19:29.829Z,13.70
2022-12-25T12:22:02.930Z,13.64
2022-12-25T12:24:36.501Z,13.62
2022-12-25T12:27:06.828Z,13.57
2022-12-25T12:29:43.126Z,13.45
2022-12-25T12:32:34.860Z,13.40
2022-12-25T12:35:09.279Z,13.45
2022-12-25T12:37:38.873Z,13.65
2022-12-25T12:40:08.824Z,13.79
2022-12-25T12:42:40.500Z,13.86
2022-12-25T12:45:17.908Z,13.84
2022-12-25T12:47:50.286Z,13.79
2022-12-25T12:50:31.173Z,13.74
2022-12-25T12:53:22.515Z,13.66
2022-12-25T12:55:52.841Z,13.59
2022-12-25T12:58:37.916Z,13.54
2022-12-25T13:01:18.928Z,13.57
2022-12-25T13:04:14.009Z,13.64
2022-12-25T13:06:47.749Z,13.58
2022-12-25T13:09:29.504Z,13.64
2022-12-25T13:11:56.636Z,13.58
2022-12-25T13:14:25.423Z,13.50
2022-12-25T13:16:55.157Z,13.40
2022-12-25T13:19:24.913Z,13.43
2022-12-25T13:22:00.698Z,13.48
2022-12-25T13:24:30.844Z,13.63
2022-12-25T13:26:59.391Z,13.86
2022-12-25T13:29:36.256Z,13.87
2022-12-25T13:32:05.706Z,13.65
2022-12-25T13:34:42.209Z,13.53
2022-12-25T13:37:14.085Z,13.51
2022-12-25T13:39:56.251Z,13.47
2022-12-25T13:42:26.325Z,13.45
2022-12-25T13:44:55.145Z,13.54
2022-12-25T13:47:24.037Z,13.58
2022-12-25T13:49:52.850Z,13.63
2022-12-25T13:52:23.006Z,13.66
2022-12-25T13:55:18.900Z,13.55
2022-12-25T13:58:06.866Z,13.49
2022-12-25T14:01:06.600Z,13.28
2022-12-25T14:03:46.389Z,13.12
2022-12-25T14:06:24.804Z,13.00
2022-12-25T14:08:54.062Z,12.90
2022-12-25T14:11:25.808Z,12.84
2022-12-25T14:13:58.352Z,12.71
2022-12-25T14:16:26.005Z,12.57
2022-12-25T14:19:00.772Z,12.46
2022-12-25T14:21:38.685Z,12.34
2022-12-25T14:24:13.775Z,12.26
2022-12-25T14:26:41.404Z,12.18
2022-12-25T14:29:17.154Z,12.12
2022-12-25T14:31:54.368Z,12.03
2022-12-25T14:34:32.063Z,11.93
2022-12-25T14:37:02.781Z,11.83
2022-12-25T14:39:32.451Z,11.78
2022-12-25T14:42:11.411Z,11.73
2022-12-25T14:44:40.314Z,11.69
2022-12-25T14:47:19.950Z,11.67
2022-12-25T14:49:48.197Z,11.66
2022-12-25T14:52:27.760Z,11.62
2022-12-25T14:55:03.655Z,11.59
2022-12-25T14:57:41.281Z,11.55
2022-12-25T15:00:23.329Z,11.53
2022-12-25T15:02:55.270Z,11.51
2022-12-25T15:05:38.113Z,11.55
2022-12-25T15:08:14.757Z,11.45
2022-12-25T15:11:02.565Z,11.23
2022-12-25T15:13:32.387Z,11.08
2022-12-25T15:16:30.921Z,10.98
2022-12-25T15:19:00.534Z,11.00
2022-12-25T15:21:33.147Z,10.96
2022-12-25T15:24:00.478Z,10.93
2022-12-25T15:26:29.561Z,10.89
2022-12-25T15:28:59.475Z,10.89
2022-12-25T15:31:29.976Z,10.92
2022-12-25T15:33:59.304Z,11.00
2022-12-25T15:36:26.792Z,11.10
2022-12-25T15:38:54.175Z,11.09
2022-12-25T15:41:52.343Z,11.02
2022-12-25T15:44:19.548Z,10.83
2022-12-25T15:46:46.791Z,10.81
2022-12-25T15:49:14.595Z,10.80
2022-12-25T15:51:42.613Z,10.80
2022-12-25T15:54:10.026Z,10.87
2022-12-25T15:56:46.915Z,10.90
2022-12-25T15:59:15.937Z,10.93
2022-12-25T16:01:49.319Z,10.96
2022-12-25T16:04:16.181Z,10.94
2022-12-25T16:06:43.002Z,10.85
2022-12-25T16:09:11.759Z,10.87
2022-12-25T16:11:38.639Z,10.77
2022-12-25T16:14:05.910Z,10.72
2022-12-25T16:16:33.028Z,10.64
2022-12-25T16:19:00.571Z,10.58
2022-12-25T16:21:38.354Z,10.56
2022-12-25T16:24:05.608Z,10.59
2022-12-25T16:26:33.188Z,10.58
2022-12-25T16:29:06.666Z,10.59
2022-12-25T16:31:35.555Z,10.62
2022-12-25T16:34:02.834Z,10.60
2022-12-25T16:36:29.939Z,10.54
2022-12-25T16:38:56.775Z,10.51
2022-12-25T16:41:23.509Z,10.41
2022-12-25T16:43:50.399Z,10.36
2022-12-25T16:46:20.703Z,10.30
2022-12-25T16:48:47.721Z,10.31
2022-12-25T16:51:17.438Z,10.33
2022-12-25T16:53:44.952Z,10.35
2022-12-25T16:56:14.934Z,10.33
2022-12-25T16:58:46.661Z,10.38
2022-12-25T17:01:19.033Z,10.41
2022-12-25T17:03:47.198Z,10.38
2022-12-25T17:06:22.991Z,10.31
2022-12-25T17:08:51.857Z,10.30
2022-12-25T17:11:27.086Z,10.30
2022-12-25T17:14:00.046Z,10.27
2022-12-25T17:16:32.138Z,10.14
2022-12-25T17:19:01.553Z,10.12
2022-12-25T17:21:29.378Z,10.07
2022-12-25T17:24:02.407Z,10.05
2022-12-25T17:26:34.043Z,10.07
2022-12-25T17:29:01.317Z,10.02
2022-12-25T17:31:29.187Z,10.00
2022-12-25T17:33:56.173Z,9.99
2022-12-25T17:36:23.626Z,9.94
2022-12-25T17:38:50.474Z,9.89
2022-12-25T17:41:19.453Z,9.87
2022-12-25T17:43:47.559Z,9.88
2022-12-25T17:46:25.870Z,9.90
2022-12-25T17:48:58.957Z,9.87
2022-12-25T17:51:27.680Z,9.86
2022-12-25T17:54:03.084Z,9.73
2022-12-25T17:56:30.640Z,9.70
2022-12-25T17:59:00.213Z,9.70
2022-12-25T18:01:29.916Z,9.71
2022-12-25T18:03:59.349Z,9.76
2022-12-25T18:06:28.255Z,9.76
2022-12-25T18:08:58.080Z,9.75
2022-12-25T18:11:29.124Z,9.70
2022-12-25T18:13:58.177Z,9.66
2022-12-25T18:16:26.855Z,9.70
2022-12-25T18:18:54.155Z,9.65
2022-12-25T18:21:23.650Z,9.64
2022-12-25T18:23:50.959Z,9.64
2022-12-25T18:26:20.413Z,9.62
2022-12-25T18:28:50.567Z,9.59
2022-12-25T18:31:22.020Z,9.58
2022-12-25T18:33:50.090Z,9.57
2022-12-25T18:36:23.151Z,9.53
2022-12-25T18:38:51.734Z,9.51
2022-12-25T18:41:19.613Z,9.50
2022-12-25T18:43:53.184Z,9.50
2022-12-25T18:46:40.288Z,9.50
2022-12-25T18:49:35.418Z,9.40
2022-12-25T18:52:49.123Z,9.39
2022-12-25T18:54:49.870Z,9.40
2022-12-25T18:57:47.054Z,9.39
2022-12-25T19:00:14.187Z,9.42
2022-12-25T19:02:41.139Z,9.34
2022-12-25T19:05:08.125Z,9.27
2022-12-25T19:07:36.245Z,9.22
2022-12-25T19:10:04.901Z,9.20
2022-12-25T19:12:31.952Z,9.17
2022-12-25T19:18:33.761Z,9.14
2022-12-25T19:21:05.825Z,9.14
2022-12-25T19:23:32.880Z,9.15
2022-12-25T19:26:00.776Z,9.10
2022-12-25T19:28:27.796Z,9.02
2022-12-25T19:30:55.079Z,8.96
2022-12-25T19:33:22.975Z,8.95
2022-12-25T19:35:50.324Z,8.96
2022-12-25T19:38:17.380Z,8.95
2022-12-25T19:41:00.691Z,8.89
2022-12-25T19:43:35.608Z,8.87
2022-12-25T19:46:03.832Z,8.85
2022-12-25T19:48:35.483Z,8.82
2022-12-25T19:51:02.581Z,8.76
2022-12-25T19:53:30.320Z,8.68
2022-12-25T19:56:02.077Z,8.64
2022-12-25T19:58:29.933Z,8.63
2022-12-25T20:01:02.171Z,8.59
2022-12-25T20:03:29.214Z,8.57
2022-12-25T20:05:56.557Z,8.57
2022-12-25T20:08:35.104Z,8.55
2022-12-25T20:11:03.253Z,8.54
2022-12-25T20:13:30.048Z,8.55
2022-12-25T20:16:05.969Z,8.59
2022-12-25T20:18:32.778Z,8.47
2022-12-25T20:21:01.815Z,8.43
2022-12-25T20:23:28.890Z,8.43
2022-12-25T20:26:00.820Z,8.43
2022-12-25T20:28:28.620Z,8.39
2022-12-25T20:30:56.005Z,8.41
2022-12-25T20:33:23.227Z,8.41
2022-12-25T20:35:50.769Z,8.44
2022-12-25T20:38:17.557Z,8.46
2022-12-25T20:41:24.345Z,8.39
2022-12-25T20:43:33.761Z,8.32
2022-12-25T20:46:00.785Z,8.30
2022-12-25T20:48:28.183Z,8.28
2022-12-25T20:51:06.877Z,8.33
2022-12-25T20:53:33.651Z,8.38
2022-12-25T20:56:01.419Z,8.33
2022-12-25T20:59:29.702Z,8.32
2022-12-25T21:01:59.856Z,8.36
2022-12-25T21:04:26.925Z,8.37
2022-12-25T21:06:55.217Z,8.36
2022-12-25T21:09:22.102Z,8.32
2022-12-25T21:11:48.884Z,8.30
2022-12-25T21:14:18.115Z,8.25
2022-12-25T21:16:45.148Z,8.23
2022-12-25T21:19:12.478Z,8.29
2022-12-25T21:21:42.710Z,8.19
2022-12-25T21:24:13.449Z,8.15
2022-12-25T21:26:46.126Z,8.15
2022-12-25T21:29:32.955Z,8.20
2022-12-25T21:32:27.384Z,8.28
2022-12-25T21:34:54.414Z,8.14
2022-12-25T21:37:21.344Z,8.12
2022-12-25T21:39:51.324Z,8.14
2022-12-25T21:42:18.093Z,8.18
2022-12-25T21:44:45.208Z,8.19
2022-12-25T21:47:16.993Z,8.14
2022-12-25T21:50:02.549Z,8.11
2022-12-25T21:52:29.341Z,8.16
2022-12-25T21:54:56.251Z,8.13
2022-12-25T21:57:23.028Z,8.12
2022-12-25T21:59:52.251Z,8.09
2022-12-25T22:02:19.505Z,8.04
2022-12-25T22:04:54.225Z,7.98
2022-12-25T22:07:26.245Z,8.01
2022-12-25T22:09:53.384Z,8.01
2022-12-25T22:12:42.182Z,8.03
2022-12-25T22:15:10.060Z,8.06
2022-12-25T22:18:01.222Z,8.11
2022-12-25T22:20:34.405Z,8.20
2022-12-25T22:23:01.558Z,8.18
2022-12-25T22:25:28.471Z,8.24
2022-12-25T22:27:55.653Z,8.28
2022-12-25T22:30:26.302Z,8.26
2022-12-25T22:32:53.964Z,8.20
2022-12-25T22:35:22.959Z,8.24
2022-12-25T22:37:50.185Z,8.36
2022-12-25T22:40:19.607Z,8.38
2022-12-25T22:42:46.705Z,8.36
2022-12-25T22:45:14.230Z,8.44
2022-12-25T22:47:41.839Z,8.48
2022-12-25T22:50:10.132Z,8.56
2022-12-25T22:52:37.224Z,8.60
2022-12-25T22:55:05.432Z,8.59
2022-12-25T22:57:32.171Z,8.52
2022-12-25T22:59:59.541Z,8.49
2022-12-25T23:02:29.648Z,8.48
2022-12-25T23:04:56.543Z,8.50
2022-12-25T23:07:23.383Z,8.52
2022-12-25T23:09:50.177Z,8.48
2022-12-25T23:12:35.566Z,8.49
2022-12-25T23:15:02.444Z,8.47
2022-12-25T23:17:48.525Z,8.47
2022-12-25T23:20:38.479Z,8.47
2022-12-25T23:23:24.015Z,8.54
2022-12-25T23:26:08.987Z,8.48
2022-12-25T23:28:55.866Z,8.38
2022-12-25T23:31:42.834Z,8.43
2022-12-25T23:34:09.902Z,8.43
2022-12-25T23:36:36.744Z,8.41
2022-12-25T23:39:09.728Z,8.40
2022-12-25T23:41:42.220Z,8.43
2022-12-25T23:44:11.447Z,8.45
2022-12-25T23:46:39.382Z,8.43
2022-12-25T23:49:07.103Z,8.56
2022-12-25T23:51:38.261Z,8.67
2022-12-25T23:54:06.508Z,8.73
2022-12-25T23:56:33.601Z,8.76
2022-12-25T23:59:00.479Z,8.70
